Time;durP1;ratioP1;P1;durP2;ratioP2;P2;SDS_P1;SDS_P2;PMS_P1;PMS_P2;Temp;Humidity;BMP_temperature;BMP_pressure;BME280_temperature;BME280_humidity;BME280_pressure;Samples;Min_cycle;Max_cycle;Signal;HPM_P1;HPM_P2
2022/09/06 00:01:20;;;;;;;;;;;13.00;1.00;;;;;;5111118;28;19947;-89
2022/09/06 00:04:00;;;;;;;;;;;13.00;1.00;;;;;;5069659;28;19924;-92
2022/09/06 00:09:39;;;;;;;;;;;12.90;1.00;;;;;;5110010;28;19954;-91
2022/09/06 00:12:24;;;;;;;;;;;;;;;;;;;;;
2022/09/06 00:15:13;;;;;;;;;;;12.80;1.00;;;;;;5110690;28;19936;-91
2022/09/06 00:17:46;;;;;;;;;;;12.80;1.00;;;;;;5110160;28;20317;-92
2022/09/06 00:20:25;;;;;;;;;;;12.70;1.00;;;;;;5108008;28;19924;-90
2022/09/06 00:23:03;;;;;;;;;;;12.70;1.00;;;;;;5103370;28;20376;-90
2022/09/06 00:25:46;;;;;;;;;;;12.70;1.00;;;;;;5095229;28;19960;-92
2022/09/06 00:28:21;;;;;;;;;;;12.60;1.00;;;;;;5105428;28;19924;-93
2022/09/06 00:30:54;;;;;;;;;;;12.60;1.00;;;;;;5102500;28;20428;-90
2022/09/06 00:36:41;;;;;;;;;;;12.50;1.00;;;;;;5109765;28;20434;-91
2022/09/06 00:39:30;;;;;;;;;;;12.50;1.00;;;;;;5109478;28;19931;-93
2022/09/06 00:42:03;;;;;;;;;;;12.40;1.00;;;;;;5096855;28;19931;-91
2022/09/06 00:44:33;;;;;;;;;;;12.40;1.00;;;;;;5109803;28;19924;-90
2022/09/06 00:47:13;;;;;;;;;;;12.40;1.00;;;;;;5109919;28;19999;-91
2022/09/06 00:49:46;;;;;;;;;;;12.30;1.00;;;;;;5099077;28;19924;-90
2022/09/06 00:52:28;;;;;;;;;;;12.30;1.00;;;;;;5091756;28;19956;-89
2022/09/06 00:55:03;;;;;;;;;;;12.30;1.00;;;;;;5095723;28;19928;-91
2022/09/06 00:57:49;;;;;;;;;;;12.30;1.00;;;;;;5075883;28;19925;-89
2022/09/06 01:00:31;;;;;;;;;;;12.20;1.00;;;;;;5091534;28;19974;-91
2022/09/06 01:03:10;;;;;;;;;;;12.20;1.00;;;;;;5096360;28;19928;-91
2022/09/06 01:05:55;;;;;;;;;;;12.20;1.00;;;;;;5096373;28;19924;-92
2022/09/06 01:08:51;;;;;;;;;;;12.20;1.00;;;;;;5082122;28;19934;-93
2022/09/06 01:11:36;;;;;;;;;;;12.20;1.00;;;;;;5088467;28;19931;-92
2022/09/06 01:14:09;;;;;;;;;;;12.10;1.00;;;;;;5094721;28;19924;-90
2022/09/06 01:16:44;;;;;;;;;;;12.00;1.00;;;;;;5096806;28;20326;-91
2022/09/06 01:19:34;;;;;;;;;;;12.10;1.00;;;;;;5095507;28;19959;-93
2022/09/06 01:22:23;;;;;;;;;;;12.00;1.00;;;;;;5097266;28;20416;-90
2022/09/06 01:25:03;;;;;;;;;;;12.00;1.00;;;;;;5095380;28;19925;-91
2022/09/06 01:28:01;;;;;;;;;;;12.00;1.00;;;;;;5084125;28;19928;-89
2022/09/06 01:30:42;;;;;;;;;;;12.00;1.00;;;;;;5095866;28;19924;-92
2022/09/06 01:33:19;;;;;;;;;;;12.00;1.00;;;;;;5096396;28;19946;-93
2022/09/06 01:35:59;;;;;;;;;;;11.90;1.00;;;;;;5096722;28;19990;-92
2022/09/06 01:41:30;;;;;;;;;;;11.80;1.00;;;;;;5086353;28;19924;-90
2022/09/06 01:44:18;;;;;;;;;;;11.80;1.00;;;;;;5091651;28;19928;-90
2022/09/06 01:46:57;;;;;;;;;;;11.80;1.00;;;;;;4991234;28;20013;-90
2022/09/06 01:49:37;;;;;;;;;;;11.70;1.00;;;;;;4994087;28;19930;-91
2022/09/06 01:52:25;;;;;;;;;;;11.70;1.00;;;;;;5057718;28;19931;-94
2022/09/06 01:55:25;;;;;;;;;;;;;;;;;;;;;
2022/09/06 01:58:17;;;;;;;;;;;11.70;1.00;;;;;;5081486;28;19935;-92
2022/09/06 02:03:58;;;;;;;;;;;11.60;1.00;;;;;;5093291;28;20017;-92
2022/09/06 02:06:39;;;;;;;;;;;11.60;4.50;;;;;;5078329;28;19930;-90
2022/09/06 02:09:17;;;;;;;;;;;11.50;1.00;;;;;;5074295;28;20289;-90
2022/09/06 02:11:56;;;;;;;;;;;11.50;1.00;;;;;;5090947;28;19969;-92
2022/09/06 02:14:47;;;;;;;;;;;11.50;1.00;;;;;;5094996;28;19931;-92
2022/09/06 02:17:31;;;;;;;;;;;10.90;1.00;;;;;;5095774;28;20273;-90
2022/09/06 02:23:06;;;;;;;;;;;11.60;99.90;;;;;;5091779;28;19931;-89
2022/09/06 02:25:53;;;;;;;;;;;;;;;;;;;;;
2022/09/06 02:28:31;;;;;;;;;;;11.30;1.00;;;;;;5095293;28;20389;-91
2022/09/06 02:31:11;;;;;;;;;;;11.40;99.90;;;;;;5094754;28;20315;-91
2022/09/06 02:33:50;;;;;;;;;;;11.30;1.00;;;;;;5095380;28;19924;-92
2022/09/06 02:36:35;;;;;;;;;;;11.30;11.90;;;;;;5084274;28;20014;-91
2022/09/06 02:39:25;;;;;;;;;;;11.20;22.90;;;;;;5094563;28;19932;-92
2022/09/06 02:42:04;;;;;;;;;;;11.20;1.00;;;;;;5091212;28;19928;-90
2022/09/06 02:44:51;;;;;;;;;;;11.20;30.00;;;;;;5094566;28;19993;-93
2022/09/06 02:47:28;;;;;;;;;;;11.10;21.60;;;;;;5095737;28;20312;-91
2022/09/06 02:50:05;;;;;;;;;;;11.10;17.50;;;;;;5090798;28;19928;-92
2022/09/06 02:52:44;;;;;;;;;;;11.10;47.80;;;;;;5095010;28;19931;-90
2022/09/06 02:55:29;;;;;;;;;;;;;;;;;;;;;
2022/09/06 02:58:15;;;;;;;;;;;11.10;44.70;;;;;;5082549;28;19935;-93
2022/09/06 03:00:48;;;;;;;;;;;11.00;36.50;;;;;;5095046;28;20023;-89
2022/09/06 03:03:26;;;;;;;;;;;11.00;53.00;;;;;;5094822;28;20015;-93
2022/09/06 03:06:10;;;;;;;;;;;11.00;34.20;;;;;;5087627;28;20272;-91
2022/09/06 03:08:47;;;;;;;;;;;11.00;19.10;;;;;;5090874;28;19924;-94
2022/09/06 03:11:41;;;;;;;;;;;11.00;44.70;;;;;;5087731;28;19928;-90
2022/09/06 03:14:15;;;;;;;;;;;10.90;44.90;;;;;;5080253;28;19932;-91
2022/09/06 03:16:55;;;;;;;;;;;10.90;28.80;;;;;;5080678;28;19924;-90
2022/09/06 03:19:32;;;;;;;;;;;10.90;48.70;;;;;;5084361;28;19939;-93
2022/09/06 03:24:58;;;;;;;;;;;10.80;39.40;;;;;;5092192;28;20020;-89
2022/09/06 03:27:32;;;;;;;;;;;10.80;29.50;;;;;;5081922;28;19924;-88
2022/09/06 03:30:08;;;;;;;;;;;10.80;92.10;;;;;;5085716;28;19931;-92
2022/09/06 03:32:46;;;;;;;;;;;10.80;59.80;;;;;;5080782;28;20361;-93
2022/09/06 03:40:55;;;;;;;;;;;10.70;91.50;;;;;;5090528;28;19935;-94
2022/09/06 03:43:27;;;;;;;;;;;10.70;74.90;;;;;;5085180;28;19924;-91
2022/09/06 03:45:58;;;;;;;;;;;10.70;93.30;;;;;;5093337;28;19978;-90
2022/09/06 03:48:41;;;;;;;;;;;;;;;;;;;;;
2022/09/06 03:51:22;;;;;;;;;;;10.60;89.80;;;;;;5074063;28;19931;-88
2022/09/06 03:53:55;;;;;;;;;;;10.60;84.00;;;;;;5088137;28;19936;-90
2022/09/06 03:56:25;;;;;;;;;;;10.60;99.90;;;;;;5087456;28;19956;-91
2022/09/06 03:58:52;;;;;;;;;;;10.60;99.90;;;;;;5096022;28;19924;-91
2022/09/06 04:01:38;;;;;;;;;;;10.50;99.90;;;;;;5089115;28;19924;-91
2022/09/06 04:04:23;;;;;;;;;;;10.50;99.90;;;;;;5069410;28;19936;-92
2022/09/06 04:07:03;;;;;;;;;;;10.50;99.90;;;;;;5093449;28;19924;-94
2022/09/06 04:09:40;;;;;;;;;;;10.50;99.90;;;;;;5091656;28;19924;-90
2022/09/06 04:12:08;;;;;;;;;;;10.50;99.90;;;;;;5090841;28;19943;-89
2022/09/06 04:14:39;;;;;;;;;;;10.40;99.90;;;;;;5094924;28;19970;-91
2022/09/06 04:17:17;;;;;;;;;;;10.50;99.90;;;;;;5086135;28;19925;-88
2022/09/06 04:19:49;;;;;;;;;;;10.50;99.90;;;;;;5093881;28;19962;-89
2022/09/06 04:22:16;;;;;;;;;;;10.50;99.90;;;;;;5093921;28;19931;-86
2022/09/06 04:24:43;;;;;;;;;;;10.50;99.90;;;;;;5099159;28;19924;-89
2022/09/06 04:27:10;;;;;;;;;;;10.50;99.90;;;;;;5097087;28;19972;-88
2022/09/06 04:29:38;;;;;;;;;;;10.50;99.90;;;;;;5088744;28;19932;-90
2022/09/06 04:32:08;;;;;;;;;;;10.50;99.90;;;;;;5100580;28;19928;-89
2022/09/06 04:34:34;;;;;;;;;;;10.50;99.90;;;;;;5096784;28;19928;-90
2022/09/06 04:37:10;;;;;;;;;;;10.50;99.90;;;;;;5109713;28;19924;-90
2022/09/06 04:39:37;;;;;;;;;;;10.50;99.90;;;;;;5088916;28;19928;-88
2022/09/06 04:42:04;;;;;;;;;;;10.50;99.90;;;;;;5086569;28;20403;-89
2022/09/06 04:44:30;;;;;;;;;;;10.50;99.90;;;;;;5090991;28;19928;-87
2022/09/06 04:47:05;;;;;;;;;;;10.50;99.90;;;;;;5095751;28;19932;-88
2022/09/06 04:49:32;;;;;;;;;;;10.50;99.90;;;;;;5095222;28;19954;-90
2022/09/06 04:52:02;;;;;;;;;;;10.50;99.90;;;;;;5098640;28;19946;-90
2022/09/06 04:54:31;;;;;;;;;;;10.60;99.90;;;;;;5116286;28;19935;-91
2022/09/06 04:56:58;;;;;;;;;;;10.50;99.90;;;;;;5106341;28;19935;-87
2022/09/06 04:59:24;;;;;;;;;;;10.60;99.90;;;;;;5095784;28;20385;-86
2022/09/06 05:01:51;;;;;;;;;;;10.60;99.90;;;;;;5090034;28;19957;-88
2022/09/06 05:04:18;;;;;;;;;;;10.60;99.90;;;;;;5101971;28;20002;-88
2022/09/06 05:06:45;;;;;;;;;;;10.60;99.90;;;;;;5095845;28;20369;-86
2022/09/06 05:09:12;;;;;;;;;;;10.70;99.90;;;;;;5094546;28;19970;-87
2022/09/06 05:11:40;;;;;;;;;;;10.90;99.90;;;;;;5094353;28;19928;-87
2022/09/06 05:14:07;;;;;;;;;;;11.50;99.90;;;;;;5095309;28;20866;-85
2022/09/06 05:16:33;;;;;;;;;;;12.40;99.90;;;;;;5095655;28;19927;-89
2022/09/06 05:19:00;;;;;;;;;;;13.20;9.20;;;;;;5093764;28;19931;-86
2022/09/06 05:21:27;;;;;;;;;;;13.90;1.00;;;;;;5093650;28;19924;-85
2022/09/06 05:23:54;;;;;;;;;;;14.60;1.00;;;;;;5093660;28;20388;-86
2022/09/06 05:26:21;;;;;;;;;;;15.10;1.00;;;;;;5079757;28;19924;-85
2022/09/06 05:28:49;;;;;;;;;;;15.60;1.00;;;;;;5098715;28;19951;-89
2022/09/06 05:31:24;;;;;;;;;;;16.10;1.00;;;;;;5106941;28;19971;-87
2022/09/06 05:33:51;;;;;;;;;;;16.50;1.00;;;;;;5095009;28;19932;-86
2022/09/06 05:36:18;;;;;;;;;;;16.80;1.00;;;;;;5089113;28;20396;-88
2022/09/06 05:38:45;;;;;;;;;;;17.10;1.00;;;;;;5085875;28;19924;-87
2022/09/06 05:41:12;;;;;;;;;;;17.50;1.00;;;;;;5100087;28;19947;-88
2022/09/06 05:43:39;;;;;;;;;;;17.80;1.00;;;;;;5089899;28;19924;-87
2022/09/06 05:46:17;;;;;;;;;;;18.00;1.00;;;;;;5112131;28;19931;-91
2022/09/06 05:48:54;;;;;;;13.07;11.95;;;18.20;1.00;;;;;;5117031;28;19985;-93
2022/09/06 05:51:25;;;;;;;;;;;18.30;1.00;;;;;;5117476;28;20266;-92
2022/09/06 05:53:57;;;;;;;;;;;18.50;1.00;;;;;;5104858;28;19988;-90
2022/09/06 05:56:25;;;;;;;;;;;18.70;1.00;;;;;;5118036;28;19924;-93
2022/09/06 05:58:52;;;;;;;;;;;18.90;1.00;;;;;;5118169;28;19924;-92
2022/09/06 06:01:23;;;;;;;;;;;19.20;1.00;;;;;;5103136;28;20007;-90
2022/09/06 06:03:51;;;;;;;;;;;19.40;1.00;;;;;;5118054;28;19920;-91
2022/09/06 06:06:19;;;;;;;;;;;19.50;1.00;;;;;;5117227;28;19927;-90
2022/09/06 06:08:49;;;;;;;;;;;19.80;1.00;;;;;;5118067;28;19924;-89
2022/09/06 06:11:16;;;;;;;;;;;20.00;1.00;;;;;;5117154;28;19927;-91
2022/09/06 06:13:51;;;;;;;;;;;20.00;1.00;;;;;;5117899;28;19931;-91
2022/09/06 06:16:24;;;;;;;;;;;20.30;1.00;;;;;;5117985;28;19909;-90
2022/09/06 06:18:52;;;;;;;;;;;20.70;1.00;;;;;;5097405;28;19920;-89
2022/09/06 06:21:21;;;;;;;;;;;20.80;1.00;;;;;;5098256;28;19911;-89
2022/09/06 06:23:54;;;;;;;;;;;21.00;1.00;;;;;;5094045;28;20304;-87
2022/09/06 06:26:21;;;;;;;;;;;21.20;1.00;;;;;;5093598;28;19920;-85
2022/09/06 06:28:48;;;;;;;;;;;21.30;1.00;;;;;;5093914;28;19919;-86
2022/09/06 06:31:15;;;;;;;;;;;21.50;1.00;;;;;;5083541;28;19956;-86
2022/09/06 06:33:43;;;;;;;;;;;21.70;1.00;;;;;;5090760;28;19920;-86
2022/09/06 06:36:23;;;;;;;;;;;21.90;1.00;;;;;;5094885;28;19926;-86
2022/09/06 06:39:00;;;;;;;;;;;22.10;1.00;;;;;;5083865;28;19966;-90
2022/09/06 06:41:27;;;;;;;;;;;22.40;1.00;;;;;;5085637;28;19969;-90
2022/09/06 06:43:55;;;;;;;;;;;22.70;1.00;;;;;;5094869;28;19923;-88
2022/09/06 06:46:23;;;;;;;;;;;22.90;1.00;;;;;;5093022;28;19924;-89
2022/09/06 06:48:59;;;;;;;;;;;23.00;1.00;;;;;;5093653;28;19927;-87
2022/09/06 06:51:32;;;;;;;;;;;23.20;1.00;;;;;;5093892;28;19924;-87
2022/09/06 06:54:00;;;;;;;;;;;23.30;1.00;;;;;;5094464;28;20359;-89
2022/09/06 06:56:28;;;;;;;;;;;23.50;1.00;;;;;;5095924;28;19920;-90
2022/09/06 06:58:57;;;;;;;;;;;23.50;1.00;;;;;;5087617;28;19923;-92
2022/09/06 07:01:26;;;;;;;;;;;23.40;1.00;;;;;;5095359;28;20051;-88
2022/09/06 07:03:53;;;;;;;;;;;23.50;1.00;;;;;;5095480;28;19920;-87
2022/09/06 07:06:23;;;;;;;;;;;23.40;1.00;;;;;;5094998;28;19920;-88
2022/09/06 07:08:51;;;;;;;;;;;23.40;1.00;;;;;;5083745;28;19919;-87
2022/09/06 07:11:18;;;;;;;;;;;23.50;1.00;;;;;;5093002;28;19924;-89
2022/09/06 07:13:45;;;;;;;;;;;23.50;1.00;;;;;;5090674;28;19953;-88
2022/09/06 07:16:13;;;;;;;;;;;23.70;1.00;;;;;;5089419;28;19970;-87
2022/09/06 07:18:42;;;;;;;;;;;23.90;1.00;;;;;;5094093;28;19920;-90
2022/09/06 07:21:12;;;;;;;;;;;23.90;1.00;;;;;;5093548;28;19920;-87
2022/09/06 07:23:45;;;;;;;;;;;23.90;1.00;;;;;;5093632;28;19924;-90
2022/09/06 07:26:27;;;;;;;;;;;23.90;1.00;;;;;;5095967;28;19920;-88
2022/09/06 07:28:54;;;;;;;;;;;24.20;1.00;;;;;;5094480;28;19920;-86
2022/09/06 07:31:33;;;;;;;;;;;24.10;1.00;;;;;;5093462;28;19946;-89
2022/09/06 07:34:00;;;;;;;;;;;24.10;1.00;;;;;;5093209;28;19920;-86
2022/09/06 07:36:27;;;;;;;;;;;24.10;1.00;;;;;;5092892;28;19920;-88
2022/09/06 07:38:53;;;;;;;;;;;24.10;1.00;;;;;;5092663;28;19937;-88
2022/09/06 07:41:22;;;;;;;;;;;24.10;1.00;;;;;;5092499;28;19920;-87
2022/09/06 07:43:53;;;;;;;;;;;24.10;1.00;;;;;;5092546;28;19955;-88
2022/09/06 07:46:20;;;;;;;;;;;24.10;1.00;;;;;;5092748;28;19966;-86
2022/09/06 07:48:48;;;;;;;;;;;24.10;1.00;;;;;;5092650;28;19953;-88
2022/09/06 07:51:16;;;;;;;;;;;24.10;1.00;;;;;;5092575;28;19920;-89
2022/09/06 07:53:43;;;;;;;;;;;23.90;1.00;;;;;;5092796;28;20339;-87
2022/09/06 07:56:11;;;;;;;;;;;24.00;1.00;;;;;;5092352;28;20059;-88
2022/09/06 07:58:40;;;;;;;;;;;24.60;1.00;;;;;;5092705;28;19942;-89
2022/09/06 08:01:18;;;;;;;;;;;25.00;1.00;;;;;;5100325;28;19920;-89
2022/09/06 08:03:45;;;;;;;;;;;25.30;1.00;;;;;;5120387;28;19920;-92
2022/09/06 08:06:13;;;;;;;;;;;25.90;1.00;;;;;;5120563;28;19920;-89
2022/09/06 08:08:40;;;;;;;;;;;26.40;1.00;;;;;;5119659;28;19924;-88
2022/09/06 08:11:09;;;;;;;;;;;26.60;1.00;;;;;;5120417;28;19947;-91
2022/09/06 08:13:37;;;;;;;;;;;26.80;1.00;;;;;;5120331;28;19942;-90
2022/09/06 08:16:10;;;;;;;;;;;26.80;1.00;;;;;;5119925;28;19911;-90
2022/09/06 08:18:41;;;;;;;;;;;27.20;1.00;;;;;;5120181;28;19903;-92
2022/09/06 08:21:10;;;;;;;;;;;27.80;1.00;;;;;;5119824;28;19904;-91
2022/09/06 08:23:37;;;;;;;;;;;28.10;1.00;;;;;;5120245;28;19988;-91
2022/09/06 08:26:04;;;;;;;;;;;28.30;1.00;;;;;;5116744;28;19904;-93
2022/09/06 08:28:31;;;;;;;;;;;28.10;1.00;;;;;;5109205;28;19920;-92
2022/09/06 08:31:15;;;;;;;;;;;28.00;1.00;;;;;;5119929;28;19926;-90
2022/09/06 08:33:46;;;;;;;;;;;27.60;1.00;;;;;;5102572;28;19920;-93
2022/09/06 08:36:14;;;;;;;;;;;27.50;1.00;;;;;;5119696;28;19919;-92
2022/09/06 08:55:42;;;;;;;;;;;26.50;1.00;;;;;;4997415;23;19923;-92
2022/09/06 09:03:59;;;;;;;;;;;26.50;1.00;;;;;;4956944;28;19973;-89
2022/09/06 09:06:26;;;;;;;;;;;26.70;1.00;;;;;;4956945;28;19922;-87
2022/09/06 09:09:00;;;;;;;;;;;26.50;1.00;;;;;;4956808;28;19929;-86
2022/09/06 09:11:32;;;;;;;;;;;26.00;1.00;;;;;;4956536;28;19950;-85
2022/09/06 09:14:02;;;;;;;;;;;25.40;1.00;;;;;;4957070;28;19953;-85
2022/09/06 09:16:29;;;;;;;;;;;24.80;1.00;;;;;;4956928;28;20304;-85
2022/09/06 09:18:58;;;;;;;;;;;24.40;1.00;;;;;;4956961;28;19923;-85
2022/09/06 09:21:26;;;;;;;;;;;24.10;1.00;;;;;;4956929;28;19922;-84
2022/09/06 09:23:55;;;;;;;;;;;23.90;1.00;;;;;;4964659;28;19922;-90
2022/09/06 09:26:25;;;;;;;;;;;24.10;1.00;;;;;;4980227;28;19922;-91
2022/09/06 09:29:08;;;;;;;;;;;24.30;1.00;;;;;;4980439;28;19922;-93
2022/09/06 09:31:41;;;;;;;;;;;24.80;1.00;;;;;;4978020;29;19914;-91
2022/09/06 09:34:13;;;;;;;;;;;25.30;1.00;;;;;;4980141;28;19971;-91
2022/09/06 09:36:41;;;;;;;;;;;25.40;1.00;;;;;;4979505;28;19913;-91
2022/09/06 09:39:11;;;;;;;;;;;25.60;1.00;;;;;;4979492;28;19906;-89
2022/09/06 09:41:41;;;;;;;;;;;25.70;1.00;;;;;;4979758;28;19929;-92
2022/09/06 09:44:18;;;;;;;;;;;25.80;1.00;;;;;;4979071;28;19922;-90
2022/09/06 09:46:46;;;;;;;;;;;25.60;1.00;;;;;;4979468;29;19922;-91
2022/09/06 09:49:27;;;;;;;;;;;25.40;1.00;;;;;;4992644;28;19945;-92
2022/09/06 09:52:05;;;;;;;;;;;25.20;1.00;;;;;;4998772;28;19945;-90
2022/09/06 09:54:35;;;;;;;;;;;25.10;1.00;;;;;;4983786;28;19919;-91
2022/09/06 09:57:07;;;;;;;;;;;25.20;1.00;;;;;;4979344;28;19906;-91
2022/09/06 09:59:39;;;;;;;;;;;25.20;1.00;;;;;;4978508;28;19929;-90
2022/09/06 10:02:25;;;;;;;;;;;25.00;1.00;;;;;;4979343;28;19922;-88
2022/09/06 10:04:59;;;;;;;;;;;25.00;1.00;;;;;;4979167;28;19933;-88
2022/09/06 10:07:27;;;;;;;;;;;24.90;1.00;;;;;;4979290;28;19922;-88
2022/09/06 10:10:05;;;;;;;;;;;24.70;1.00;;;;;;4979427;28;19969;-90
2022/09/06 10:12:42;;;;;;;;;;;24.50;1.00;;;;;;4978931;28;19926;-89
2022/09/06 10:15:11;;;;;;;;;;;24.30;1.00;;;;;;4978864;28;19907;-90
2022/09/06 10:17:50;;;;;;;;;;;24.40;1.00;;;;;;4979345;28;19923;-89
2022/09/06 10:20:20;;;;;;;;;;;24.50;1.00;;;;;;4980428;28;19966;-89
2022/09/06 10:22:52;;;;;;;;;;;24.20;1.00;;;;;;4989408;28;19954;-92
2022/09/06 10:25:36;;;;;;;;;;;24.00;1.00;;;;;;4978927;28;19923;-89
2022/09/06 10:31:18;;;;;;;;;;;24.00;1.00;;;;;;4978412;28;19906;-91
2022/09/06 10:33:52;;;;;;;;;;;23.90;1.00;;;;;;4978847;28;19922;-91
2022/09/06 10:36:26;;;;;;;;;;;23.80;1.00;;;;;;4978680;28;19978;-91
2022/09/06 10:39:05;;;;;;;;;;;23.80;1.00;;;;;;4978860;28;19946;-90
2022/09/06 10:41:45;;;;;;;;;;;23.80;1.00;;;;;;4978878;28;19918;-90
2022/09/06 10:44:24;;;;;;;;;;;23.70;1.00;;;;;;4978330;28;20404;-91
2022/09/06 10:46:56;;;;;;;;;;;23.60;1.00;;;;;;4978481;28;19922;-88
2022/09/06 10:49:27;;;;;;;;;;;23.60;1.00;;;;;;4978454;28;19930;-90
2022/09/06 10:51:58;;;;;;;;;;;23.60;1.00;;;;;;4978090;28;19906;-89
2022/09/06 10:54:25;;;;;;;;;;;23.70;1.00;;;;;;4970293;28;19906;-88
2022/09/06 10:56:57;;;;;;;;;;;23.70;1.00;;;;;;4972375;28;19926;-93
2022/09/06 10:59:27;;;;;;;;;;;23.70;1.00;;;;;;4997685;28;19906;-90
2022/09/06 11:01:57;;;;;;;;;;;23.50;1.00;;;;;;4982130;28;19923;-86
2022/09/06 11:04:36;;;;;;;;;;;23.50;1.00;;;;;;4977549;28;19923;-89
2022/09/06 11:07:05;;;;;;;;;;;23.50;1.00;;;;;;4978071;28;19927;-92
2022/09/06 11:09:34;;;;;;;;;;;23.70;1.00;;;;;;4965312;28;19933;-86
2022/09/06 11:12:03;;;;;;;;;;;23.90;1.00;;;;;;4955199;28;19969;-87
2022/09/06 11:14:30;;;;;;;;;;;23.90;1.00;;;;;;4954608;28;20379;-86
2022/09/06 11:17:03;;;;;;;;;;;23.90;1.00;;;;;;4953646;28;19989;-86
2022/09/06 11:19:36;;;;;;;;;;;23.90;1.00;;;;;;4954755;28;19922;-86
2022/09/06 11:22:12;;;;;;;;;;;23.90;1.00;;;;;;4954925;28;19930;-85
2022/09/06 11:24:55;;;;;;;;;;;23.80;1.00;;;;;;4954543;28;20402;-88
2022/09/06 11:27:27;;;;;;;;;;;24.00;1.00;;;;;;4948173;28;20021;-85
2022/09/06 11:29:55;;;;;;;;;;;24.30;1.00;;;;;;4942149;28;19923;-86
2022/09/06 11:32:31;;;;;;;;;;;24.40;1.00;;;;;;4969065;28;19966;-87
2022/09/06 11:35:01;;;;;;;;;;;24.50;1.00;;;;;;4975886;28;20300;-86
2022/09/06 11:37:31;;;;;;;;;;;24.60;1.00;;;;;;4957778;28;19922;-88
2022/09/06 11:40:05;;;;;;;;;;;24.60;1.00;;;;;;4954914;28;20013;-87
2022/09/06 11:42:39;;;;;;;;;;;24.60;1.00;;;;;;4955040;28;19944;-85
2022/09/06 11:45:20;;;;;;;;;;;24.40;1.00;;;;;;4954689;28;20379;-86
2022/09/06 11:47:48;;;;;;;;;;;24.30;1.00;;;;;;4954916;28;20010;-88
2022/09/06 11:50:26;;;;;;;;;;;24.20;1.00;;;;;;4954889;28;19965;-88
2022/09/06 11:52:59;;;;;;;;;;;24.10;1.00;;;;;;4955192;28;19996;-86
2022/09/06 11:55:37;;;;;;;;;;;23.90;1.00;;;;;;4964401;28;20319;-87
2022/09/06 11:58:05;;;;;;;;;;;23.80;1.00;;;;;;4954553;28;20017;-87
2022/09/06 12:00:32;;;;;;;;;;;23.70;1.00;;;;;;4954619;28;20427;-88
2022/09/06 12:02:59;;;;;;;;;;;23.60;1.00;;;;;;4955756;28;19923;-86
2022/09/06 12:05:29;;;;;;;;;;;23.60;1.00;;;;;;4954650;28;19922;-85
2022/09/06 12:08:14;;;;;;;;;;;23.70;1.00;;;;;;4967973;28;19922;-86
2022/09/06 12:10:46;;;;;;;;;;;23.90;1.00;;;;;;4956845;28;20018;-85
2022/09/06 12:13:32;;;;;;;;;;;24.00;1.00;;;;;;4970832;28;19923;-87
2022/09/06 12:15:59;;;;;;;;;;;24.10;1.00;;;;;;4954997;28;19922;-87
2022/09/06 12:18:44;;;;;;;;;;;24.10;1.00;;;;;;4953900;28;19926;-88
2022/09/06 12:21:32;;;;;;;;;;;24.10;1.00;;;;;;4954086;28;19926;-87
2022/09/06 12:23:59;;;;;;;;;;;24.30;1.00;;;;;;4954463;28;19922;-87
2022/09/06 12:26:41;;;;;;;;;;;24.40;1.00;;;;;;4953227;28;19922;-86
2022/09/06 12:29:10;;;;;;;;;;;24.20;1.00;;;;;;4953947;28;19973;-86
2022/09/06 12:31:38;;;;;;;;;;;24.10;1.00;;;;;;4954213;28;19926;-88
2022/09/06 12:34:07;;;;;;;;;;;24.00;1.00;;;;;;4954455;28;20013;-86
2022/09/06 12:36:35;;;;;;;;;;;23.90;1.00;;;;;;4954239;28;20018;-86
2022/09/06 12:39:03;;;;;;;;;;;23.90;1.00;;;;;;4954140;28;19926;-86
2022/09/06 12:41:32;;;;;;;;;;;23.80;1.00;;;;;;4954015;28;19923;-86
2022/09/06 12:43:59;;;;;;;;;;;23.70;1.00;;;;;;4953847;28;19929;-86
2022/09/06 12:46:28;;;;;;;;;;;23.70;1.00;;;;;;4970450;28;20256;-87
2022/09/06 12:49:04;;;;;;;;;;;23.70;1.00;;;;;;4957247;28;20299;-87
2022/09/06 12:51:31;;;;;;;;;;;23.80;1.00;;;;;;4957438;28;20340;-84
2022/09/06 12:54:00;;;;;;;;;;;23.90;1.00;;;;;;4965761;28;20323;-86
2022/09/06 12:56:28;;;;;;;;;;;24.10;1.00;;;;;;4961924;28;20269;-84
2022/09/06 12:59:10;;;;;;;;;;;24.10;1.00;;;;;;4960802;28;19946;-89
2022/09/06 13:01:37;;;;;;;;;;;24.20;1.00;;;;;;4965205;28;19977;-88
2022/09/06 13:04:08;;;;;;;;;;;24.30;1.00;;;;;;4952458;28;20371;-87
2022/09/06 13:06:39;;;;;;;;;;;24.20;1.00;;;;;;4957554;28;19926;-87
2022/09/06 13:09:08;;;;;;;;;;;24.10;1.00;;;;;;4944448;28;19926;-88
2022/09/06 13:11:37;;;;;;;;;;;23.90;1.00;;;;;;4957519;28;19926;-87
2022/09/06 13:14:10;;;;;;;;;;;23.90;1.00;;;;;;4956825;28;19927;-86
2022/09/06 13:16:42;;;;;;;;;;;24.00;1.00;;;;;;4957077;28;19923;-87
2022/09/06 13:19:13;;;;;;;;;;;24.10;1.00;;;;;;4956592;28;19930;-87
2022/09/06 13:21:41;;;;;;;;;;;23.90;1.00;;;;;;4956716;28;20427;-87
2022/09/06 13:24:19;;;;;;;;;;;23.80;1.00;;;;;;4957724;28;20017;-87
2022/09/06 13:26:46;;;;;;;;;;;23.70;1.00;;;;;;4962447;28;19926;-87
2022/09/06 13:29:21;;;;;;;;;;;23.60;1.00;;;;;;4954320;28;20346;-88
2022/09/06 13:31:49;;;;;;;;;;;23.50;1.00;;;;;;4948640;28;20475;-87
2022/09/06 13:34:20;;;;;;;;;;;23.50;1.00;;;;;;4953816;28;19970;-86
2022/09/06 13:36:49;;;;;;;;;;;23.40;1.00;;;;;;4956772;28;19923;-88
2022/09/06 13:39:31;;;;;;;;;;;23.30;1.00;;;;;;4956628;28;19926;-87
2022/09/06 13:42:00;;;;;;;;;;;23.30;1.00;;;;;;4956515;28;19933;-87
2022/09/06 13:44:29;;;;;;;;;;;23.40;1.00;;;;;;4955992;28;19970;-89
2022/09/06 13:46:56;;;;;;;;;;;23.40;1.00;;;;;;4957612;28;19922;-89
2022/09/06 13:49:24;;;;;;;;;;;23.40;1.00;;;;;;4956090;28;19970;-88
2022/09/06 13:51:54;;;;;;;;;;;23.40;1.00;;;;;;4963063;28;19933;-92
2022/09/06 13:54:25;;;;;;;;;;;23.40;1.00;;;;;;4978185;28;19914;-92
2022/09/06 13:56:54;;;;;;;;;;;23.40;1.00;;;;;;4966255;28;19926;-88
2022/09/06 13:59:21;;;;;;;;;;;23.30;1.00;;;;;;4956422;28;19923;-88
2022/09/06 14:01:49;;;;;;;;;;;23.30;1.00;;;;;;4956234;28;19985;-89
2022/09/06 14:04:21;;;;;;;;;;;23.30;1.00;;;;;;4962628;28;19907;-92
2022/09/06 14:06:48;;;;;;;;;;;23.20;1.00;;;;;;4978085;28;19922;-93
2022/09/06 14:09:23;;;;;;;;;;;23.10;1.00;;;;;;4978786;28;19929;-93
2022/09/06 14:15:08;;;;;;;;;;;23.10;1.00;;;;;;4957864;29;19917;-88
2022/09/06 14:17:38;;;;;;;;;;;23.10;1.00;;;;;;4959318;28;19937;-87
2022/09/06 14:20:12;;;;;;;;;;;23.00;1.00;;;;;;4960959;28;19981;-91
2022/09/06 14:22:39;;;;;;;;;;;22.90;1.00;;;;;;4953515;28;19926;-88
2022/09/06 14:25:07;;;;;;;;;;;22.80;1.00;;;;;;4957587;28;19929;-88
2022/09/06 14:27:35;;;;;;;;;;;22.80;1.00;;;;;;4960536;28;19941;-90
2022/09/06 14:30:02;;;;;;;;;;;22.70;1.00;;;;;;4953525;28;19977;-87
2022/09/06 14:32:32;;;;;;;;;;;22.70;1.00;;;;;;4973288;28;19922;-89
2022/09/06 14:35:04;;;;;;;;;;;22.60;1.00;;;;;;4974264;28;19970;-83
2022/09/06 14:40:37;;;;;;;;;;;22.40;1.00;;;;;;4969419;28;19922;-91
2022/09/06 14:43:04;;;;;;;;;;;22.40;1.00;;;;;;4950921;28;19940;-89
2022/09/06 14:45:39;;;;;;;;;;;22.30;1.00;;;;;;4961553;28;19963;-96
2022/09/06 14:48:09;;;;;;;;;;;22.30;1.00;;;;;;4959115;28;19926;-91
2022/09/06 14:50:40;;;;;;;;;;;22.30;1.00;;;;;;4990771;28;19930;-91
2022/09/06 14:53:11;;;;;;;;;;;22.30;1.00;;;;;;4972166;28;19944;-88
2022/09/06 14:55:39;;;;;;;;;;;22.30;1.00;;;;;;4957880;28;19977;-87
2022/09/06 14:58:11;;;;;;;;;;;22.30;1.00;;;;;;4963267;28;19926;-88
2022/09/06 15:00:55;;;;;;;;;;;22.30;1.00;;;;;;4960849;28;19930;-89
2022/09/06 15:03:23;;;;;;;;;;;22.20;1.00;;;;;;4963456;28;19929;-86
2022/09/06 15:05:52;;;;;;;;;;;22.20;1.00;;;;;;4959985;28;19929;-89
2022/09/06 15:08:19;;;;;;;;;;;22.20;1.00;;;;;;4961597;28;19929;-87
2022/09/06 15:10:52;;;;;;;;;;;22.10;1.00;;;;;;4953404;28;19923;-88
2022/09/06 15:13:20;;;;;;;;;;;22.00;1.00;;;;;;4953005;28;20376;-88
2022/09/06 15:15:48;;;;;;;;;;;22.00;1.00;;;;;;4953777;28;20260;-87
2022/09/06 15:18:15;;;;;;;;;;;22.00;1.00;;;;;;4953991;28;19926;-87
2022/09/06 15:20:42;;;;;;;;;;;21.90;1.00;;;;;;4953767;28;19929;-84
2022/09/06 15:23:10;;;;;;;;;;;21.80;1.00;;;;;;4953341;28;20323;-85
2022/09/06 15:25:37;;;;;;;;;;;21.80;1.00;;;;;;4953824;28;19922;-85
2022/09/06 15:28:04;;;;;;;;;;;21.70;1.00;;;;;;4952783;28;20410;-85
2022/09/06 15:30:31;;;;;;;;;;;21.60;1.00;;;;;;4953245;28;20387;-85
2022/09/06 15:33:01;;;;;;;;;;;21.50;1.00;;;;;;4972098;28;19933;-91
2022/09/06 15:35:28;;;;;;;;;;;21.40;1.00;;;;;;4955035;29;19991;-85
2022/09/06 15:37:55;;;;;;;;;;;21.30;1.00;;;;;;4952618;28;19945;-85
2022/09/06 15:40:25;;;;;;;;;;;21.20;1.00;;;;;;4941987;28;19923;-85
2022/09/06 15:42:52;;;;;;;;;;;21.10;1.00;;;;;;4936589;28;19961;-85
2022/09/06 15:45:19;;;;;;;;;;;21.10;1.00;;;;;;4934061;28;19930;-86
2022/09/06 15:47:46;;;;;;;;;;;21.00;1.00;;;;;;4937795;28;19922;-85
2022/09/06 15:50:13;;;;;;;;;;;20.90;1.00;;;;;;4951211;28;19923;-84
2022/09/06 15:52:40;;;;;;;;;;;20.80;1.00;;;;;;4943637;28;19950;-85
2022/09/06 15:58:01;;;;;;;;;;;20.70;1.00;;;;;;4956332;29;19947;-84
2022/09/06 16:00:50;;;;;;;;;;;20.70;1.00;;;;;;4978845;28;19922;-87
2022/09/06 16:03:17;;;;;;;;;;;20.70;1.00;;;;;;4960205;28;19923;-84